Time;durP1;ratioP1;P1;durP2;ratioP2;P2;SDS_P1;SDS_P2;PMS_P1;PMS_P2;Temp;Humidity;BMP_temperature;BMP_pressure;BME280_temperature;BME280_humidity;BME280_pressure;Samples;Min_cycle;Max_cycle;Signal;HPM_P1;HPM_P2
2021/05/31 00:00:53;;;;;;;4.13;3.67;;;;;;;7.75;70.62;98689.88;4982825;28;20587;-72
2021/05/31 00:03:21;;;;;;;3.50;3.30;;;;;;;7.60;71.68;98683.25;4983472;28;20665;-70
2021/05/31 00:05:48;;;;;;;3.47;3.23;;;;;;;7.47;72.65;98684.31;4983688;28;20272;-71
2021/05/31 00:08:16;;;;;;;4.27;3.47;;;;;;;7.39;73.86;98690.19;4982839;28;20674;-70
2021/05/31 00:10:45;;;;;;;3.80;3.50;;;;;;;7.29;75.13;98686.66;4979482;28;20317;-71
2021/05/31 00:13:13;;;;;;;4.60;3.30;;;;;;;7.29;75.25;98694.56;4983435;28;20225;-68
2021/05/31 00:15:40;;;;;;;3.67;3.40;;;;;;;7.21;75.67;98682.00;4983181;28;20646;-71
2021/05/31 00:18:08;;;;;;;4.47;3.47;;;;;;;7.24;76.07;98679.09;4982796;28;20217;-71
2021/05/31 00:20:35;;;;;;;3.80;3.37;;;;;;;7.08;76.77;98676.88;4980525;28;20673;-71
2021/05/31 00:23:03;;;;;;;3.83;3.53;;;;;;;7.08;76.83;98673.44;4983738;28;20217;-71
2021/05/31 00:25:30;;;;;;;3.87;3.60;;;;;;;7.07;77.29;98666.47;4981367;28;20201;-71
2021/05/31 00:27:59;;;;;;;4.60;3.27;;;;;;;7.01;76.88;98661.69;4981587;28;20217;-71
2021/05/31 00:30:26;;;;;;;3.57;3.27;;;;;;;7.02;77.38;98664.22;4982131;28;20257;-68
2021/05/31 00:32:54;;;;;;;3.63;3.33;;;;;;;6.80;77.94;98665.13;4983430;28;20209;-71
2021/05/31 00:35:25;;;;;;;4.13;3.73;;;;;;;6.85;78.35;98659.47;4983610;28;20214;-68
2021/05/31 00:37:55;;;;;;;3.70;3.40;;;;;;;6.66;78.50;98666.22;4983124;28;20217;-71
2021/05/31 00:40:23;;;;;;;3.70;3.47;;;;;;;6.64;80.02;98668.13;4978933;28;20209;-70
2021/05/31 00:42:51;;;;;;;4.10;3.77;;;;;;;6.58;80.36;98661.56;4983154;28;20213;-69
2021/05/31 00:45:19;;;;;;;3.87;3.53;;;;;;;6.53;80.62;98661.09;4982707;28;20206;-68
2021/05/31 00:47:47;;;;;;;4.23;3.87;;;;;;;6.54;80.40;98659.31;4983332;28;20224;-72
2021/05/31 00:50:15;;;;;;;3.50;3.20;;;;;;;6.53;80.72;98652.34;4982457;28;20226;-70
2021/05/31 00:52:42;;;;;;;3.83;3.53;;;;;;;6.51;81.18;98655.09;4983255;28;20232;-72
2021/05/31 00:55:11;;;;;;;4.57;4.10;;;;;;;6.48;80.82;98645.66;4981672;28;20217;-70
2021/05/31 00:57:39;;;;;;;4.17;3.77;;;;;;;6.49;81.35;98651.75;4979142;28;20243;-71
2021/05/31 01:00:07;;;;;;;4.10;3.80;;;;;;;6.46;81.56;98652.84;4982118;28;20210;-71
2021/05/31 01:02:36;;;;;;;4.10;3.80;;;;;;;6.42;81.22;98651.41;4982303;28;20220;-72
2021/05/31 01:05:05;;;;;;;4.23;3.83;;;;;;;6.42;81.20;98648.75;4985049;28;20494;-70
2021/05/31 01:07:38;;;;;;;3.80;3.50;;;;;;;6.27;81.90;98649.97;4980781;28;20241;-68
2021/05/31 01:10:14;;;;;;;3.67;3.47;;;;;;;6.16;82.58;98640.28;4982314;28;20655;-70
2021/05/31 01:12:50;;;;;;;4.17;3.87;;;;;;;5.89;84.04;98646.72;4981333;28;20213;-70
2021/05/31 01:15:24;;;;;;;3.87;3.50;;;;;;;5.92;84.62;98644.66;4982225;28;20583;-71
2021/05/31 01:17:57;;;;;;;4.73;4.30;;;;;;;5.97;84.45;98646.97;4978188;28;20217;-69
2021/05/31 01:20:55;;;;;;;5.27;4.10;;;;;;;6.01;84.77;98642.31;4979482;28;20265;-72
2021/05/31 01:23:28;;;;;;;4.10;3.80;;;;;;;5.89;85.73;98642.28;4979153;28;20260;-71
2021/05/31 01:26:02;;;;;;;3.90;3.70;;;;;;;5.75;86.52;98645.97;4982000;28;20481;-71
2021/05/31 01:28:53;;;;;;;5.60;3.80;;;;;;;5.73;86.13;98640.00;4980175;28;20202;-69
2021/05/31 01:31:25;;;;;;;4.50;4.20;;;;;;;5.75;86.29;98638.06;4980641;28;20446;-69
2021/05/31 01:33:54;;;;;;;4.47;4.17;;;;;;;5.85;85.43;98642.63;4982057;28;20300;-71
2021/05/31 01:36:24;;;;;;;4.07;3.77;;;;;;;5.74;85.85;98643.47;4980331;28;20210;-70
2021/05/31 01:38:53;;;;;;;3.90;3.60;;;;;;;5.68;86.35;98638.66;4977377;28;20209;-68
2021/05/31 01:41:21;;;;;;;4.07;3.80;;;;;;;5.54;87.70;98640.53;4982175;28;20228;-71
2021/05/31 01:43:49;;;;;;;6.57;4.00;;;;;;;5.48;87.48;98644.47;4981194;28;20229;-71
2021/05/31 01:46:19;;;;;;;5.90;4.27;;;;;;;5.51;87.96;98646.03;4983589;28;20869;-70
2021/05/31 01:48:47;;;;;;;4.70;4.40;;;;;;;5.48;87.59;98639.22;4982954;28;20209;-70
2021/05/31 01:51:16;;;;;;;4.60;4.30;;;;;;;5.32;88.87;98636.06;4984591;28;20221;-68
2021/05/31 01:53:44;;;;;;;4.53;4.17;;;;;;;5.37;88.19;98641.81;4985986;28;20795;-71
2021/05/31 01:56:14;;;;;;;6.43;4.37;;;;;;;5.19;89.31;98637.00;4982555;28;20213;-68
2021/05/31 01:58:42;;;;;;;4.10;3.90;;;;;;;5.19;89.67;98634.38;4986270;28;20206;-71
2021/05/31 02:01:10;;;;;;;4.77;4.47;;;;;;;5.21;90.22;98631.59;4985083;28;20218;-72
2021/05/31 02:03:39;;;;;;;4.20;3.70;;;;;;;5.32;89.61;98629.03;4984624;28;20244;-71
2021/05/31 02:06:07;;;;;;;4.47;4.17;;;;;;;5.26;89.48;98628.66;4984585;28;20702;-71
2021/05/31 02:08:34;;;;;;;6.30;4.07;;;;;;;5.19;90.20;98623.00;4986248;28;20209;-71
2021/05/31 02:11:21;;;;;;;4.23;3.93;;;;;;;5.12;90.74;98625.28;4985469;28;20629;-70
2021/05/31 02:13:50;;;;;;;4.77;4.43;;;;;;;5.09;90.64;98622.00;4985467;28;20232;-71
2021/05/31 02:16:21;;;;;;;4.43;4.03;;;;;;;4.87;92.57;98624.44;4983002;28;20209;-70
2021/05/31 02:18:51;;;;;;;4.53;4.23;;;;;;;4.92;93.11;98624.94;4981084;28;20233;-71
2021/05/31 02:21:21;;;;;;;4.70;4.30;;;;;;;4.95;91.98;98628.28;4983512;28;20213;-71
2021/05/31 02:23:52;;;;;;;4.43;4.03;;;;;;;4.84;92.93;98629.91;4984716;28;20367;-71
2021/05/31 02:26:20;;;;;;;4.27;3.97;;;;;;;4.90;92.44;98634.72;4985393;28;20210;-71
2021/05/31 02:28:49;;;;;;;4.43;4.07;;;;;;;4.73;93.88;98628.06;4983244;28;20722;-70
2021/05/31 02:31:17;;;;;;;4.60;4.20;;;;;;;4.72;92.14;98626.38;4984642;28;20222;-71
2021/05/31 02:33:46;;;;;;;4.80;4.30;;;;;;;4.63;93.33;98627.88;4982637;28;20599;-71
2021/05/31 02:36:14;;;;;;;4.43;4.13;;;;;;;4.79;93.01;98624.16;4985316;28;20748;-68
2021/05/31 02:38:42;;;;;;;4.97;4.57;;;;;;;4.66;94.47;98620.72;4984075;28;20224;-68
2021/05/31 02:41:10;;;;;;;4.53;4.23;;;;;;;4.54;95.44;98620.69;4986039;28;20206;-71
2021/05/31 02:43:37;;;;;;;4.70;4.40;;;;;;;4.48;96.02;98615.88;4983226;28;20233;-71
2021/05/31 02:46:05;;;;;;;5.13;4.73;;;;;;;4.37;96.66;98624.50;4983691;28;20490;-71
2021/05/31 02:48:33;;;;;;;5.17;4.77;;;;;;;4.32;96.74;98622.19;4981598;28;20221;-70
2021/05/31 02:51:00;;;;;;;5.07;4.57;;;;;;;4.29;97.80;98617.16;4981459;28;20709;-71
2021/05/31 02:53:31;;;;;;;4.87;4.50;;;;;;;4.22;98.22;98612.47;4983732;28;20765;-71
2021/05/31 02:55:59;;;;;;;4.80;4.37;;;;;;;4.17;99.64;98613.66;4981767;28;20281;-71
2021/05/31 02:58:27;;;;;;;4.50;4.20;;;;;;;4.13;100.00;98621.81;4983197;28;20241;-71
2021/05/31 03:00:54;;;;;;;4.97;4.60;;;;;;;4.09;100.00;98628.25;4981996;28;20225;-71
2021/05/31 03:03:22;;;;;;;5.90;5.37;;;;;;;4.11;100.00;98621.91;4983804;28;20233;-72
2021/05/31 03:05:49;;;;;;;5.13;4.77;;;;;;;4.15;100.00;98630.44;4984300;28;20220;-71
2021/05/31 03:08:17;;;;;;;4.93;4.63;;;;;;;4.13;100.00;98621.81;4981759;28;20206;-71
2021/05/31 03:10:45;;;;;;;4.83;4.53;;;;;;;4.23;100.00;98622.84;4983900;28;20237;-72
2021/05/31 03:13:13;;;;;;;5.20;4.67;;;;;;;4.06;100.00;98618.78;4981884;28;20225;-69
2021/05/31 03:15:41;;;;;;;4.93;4.50;;;;;;;4.19;100.00;98618.78;4985374;28;20486;-71
2021/05/31 03:18:09;;;;;;;6.07;4.80;;;;;;;4.10;100.00;98615.00;4982911;28;20347;-71
2021/05/31 03:20:36;;;;;;;5.47;5.00;;;;;;;4.03;100.00;98624.25;4983234;28;20206;-71
2021/05/31 03:23:04;;;;;;;5.13;4.83;;;;;;;4.12;100.00;98623.59;4982180;28;20229;-71
2021/05/31 03:25:32;;;;;;;5.03;4.63;;;;;;;4.14;100.00;98628.75;4984965;28;20729;-71
2021/05/31 03:28:01;;;;;;;5.33;4.93;;;;;;;4.07;100.00;98633.56;4979263;28;20860;-69
2021/05/31 03:30:28;;;;;;;4.83;4.53;;;;;;;4.00;100.00;98625.31;4982711;28;20223;-71
2021/05/31 03:32:56;;;;;;;5.30;4.90;;;;;;;4.00;100.00;98630.56;4984689;28;20220;-71
2021/05/31 03:35:27;;;;;;;5.53;5.03;;;;;;;4.15;100.00;98627.81;4983904;28;20214;-71
2021/05/31 03:37:58;;;;;;;6.27;5.67;;;;;;;4.34;100.00;98635.22;4982359;28;20635;-72
2021/05/31 03:40:28;;;;;;;6.90;5.83;;;;;;;4.24;100.00;98635.03;4981124;28;20264;-72
2021/05/31 03:42:57;;;;;;;5.10;4.60;;;;;;;4.16;100.00;98629.47;4979318;28;20225;-72
2021/05/31 03:45:26;;;;;;;5.77;5.37;;;;;;;4.31;100.00;98631.00;4982564;28;20272;-72
2021/05/31 03:47:53;;;;;;;5.73;5.23;;;;;;;4.30;100.00;98634.59;4983693;28;20213;-72
2021/05/31 03:50:21;;;;;;;5.43;4.93;;;;;;;4.50;100.00;98632.34;4983802;28;20252;-70
2021/05/31 03:52:49;;;;;;;5.70;5.30;;;;;;;4.52;100.00;98630.44;4981422;28;20233;-71
2021/05/31 03:55:17;;;;;;;5.27;4.73;;;;;;;4.54;99.84;98628.56;4981280;28;20229;-72
2021/05/31 03:57:45;;;;;;;6.20;5.17;;;;;;;4.65;99.07;98627.78;4984277;28;20310;-71
2021/05/31 04:00:14;;;;;;;5.13;4.80;;;;;;;4.65;98.10;98633.03;4981989;28;20212;-70
2021/05/31 04:02:43;;;;;;;5.47;5.07;;;;;;;4.72;97.84;98630.78;4981764;28;20781;-71
2021/05/31 04:05:14;;;;;;;5.30;4.90;;;;;;;4.64;98.12;98629.56;4982849;28;20225;-71
2021/05/31 04:13:19;;;;;;;6.53;5.60;;;;;;;4.68;99.34;98638.06;4980843;28;20230;-72
2021/05/31 04:15:46;;;;;;;5.77;5.33;;;;;;;4.74;99.63;98637.63;4981156;28;20209;-68
2021/05/31 04:18:16;;;;;;;5.23;4.93;;;;;;;4.85;98.91;98638.63;4983290;28;20213;-69
2021/05/31 04:20:43;;;;;;;5.90;5.37;;;;;;;4.84;99.04;98634.31;4981143;28;20213;-71
2021/05/31 04:23:11;;;;;;;5.43;5.00;;;;;;;4.96;99.08;98643.94;4982801;28;20213;-68
2021/05/31 04:25:38;;;;;;;5.97;5.47;;;;;;;5.17;99.14;98632.78;4983158;28;20216;-70
2021/05/31 04:28:05;;;;;;;6.00;5.50;;;;;;;5.13;98.53;98631.34;4979931;28;20210;-72
2021/05/31 04:30:33;;;;;;;5.07;4.67;;;;;;;5.20;98.63;98635.19;4982828;28;20209;-68
2021/05/31 04:33:01;;;;;;;4.87;4.53;;;;;;;5.49;97.06;98632.19;4981838;28;20313;-71
2021/05/31 04:35:30;;;;;;;9.53;6.13;;;;;;;5.60;96.08;98640.06;4980872;28;20224;-70
2021/05/31 04:37:57;;;;;;;5.30;4.90;;;;;;;5.73;94.64;98633.91;4981445;28;20213;-69
2021/05/31 04:40:25;;;;;;;5.60;5.20;;;;;;;6.03;93.17;98630.72;4980995;28;20218;-70
2021/05/31 04:42:52;;;;;;;5.73;5.23;;;;;;;6.08;91.97;98635.63;4982583;28;20357;-70
2021/05/31 04:45:20;;;;;;;6.53;5.93;;;;;;;6.22;90.70;98635.38;4981687;28;20207;-69
2021/05/31 04:47:47;;;;;;;5.53;5.13;;;;;;;6.14;91.85;98636.94;4981545;28;20240;-70
2021/05/31 04:50:15;;;;;;;6.00;5.50;;;;;;;6.27;91.02;98645.56;4981197;28;20434;-70
2021/05/31 04:52:44;;;;;;;6.13;5.47;;;;;;;6.25;90.74;98644.00;4981771;28;20237;-71
2021/05/31 04:55:16;;;;;;;6.07;5.47;;;;;;;6.25;90.47;98644.00;4980530;28;20237;-71
2021/05/31 04:57:45;;;;;;;6.30;5.70;;;;;;;6.48;90.19;98644.81;4980542;28;20212;-70
2021/05/31 05:00:14;;;;;;;5.67;5.27;;;;;;;6.46;89.76;98642.31;4980565;28;20391;-69
2021/05/31 05:02:41;;;;;;;6.70;6.10;;;;;;;6.73;88.37;98635.78;4981284;28;20210;-70
2021/05/31 05:05:10;;;;;;;6.00;5.40;;;;;;;6.68;89.04;98634.50;4982659;28;20232;-70
2021/05/31 05:07:45;;;;;;;6.00;5.50;;;;;;;6.74;89.08;98634.00;4980661;28;20212;-71
2021/05/31 05:10:17;;;;;;;6.10;5.60;;;;;;;6.90;88.10;98629.16;4981508;28;20392;-68
2021/05/31 05:12:46;;;;;;;6.53;5.93;;;;;;;7.08;86.67;98633.91;4982389;28;20229;-70
2021/05/31 05:15:14;;;;;;;6.10;5.70;;;;;;;7.19;85.71;98625.94;4983969;28;20221;-69
2021/05/31 05:17:41;;;;;;;6.43;5.53;;;;;;;7.40;85.40;98625.13;4982341;28;20225;-71
2021/05/31 05:20:11;;;;;;;5.97;5.47;;;;;;;7.50;83.26;98620.75;4979906;28;20333;-70
2021/05/31 05:22:38;;;;;;;6.20;5.70;;;;;;;7.60;83.93;98620.81;4981766;28;20229;-70
2021/05/31 05:25:07;;;;;;;6.07;5.50;;;;;;;7.96;81.94;98612.50;4978556;28;20240;-70
2021/05/31 05:27:37;;;;;;;6.07;5.63;;;;;;;8.07;81.07;98616.88;4982472;28;20213;-69
2021/05/31 05:30:06;;;;;;;6.40;5.90;;;;;;;8.10;80.44;98614.78;4981487;28;20201;-70
2021/05/31 05:32:34;;;;;;;7.37;5.40;;;;;;;8.36;78.46;98619.59;4982426;28;20598;-71
2021/05/31 05:35:09;;;;;;;6.17;5.63;;;;;;;8.50;77.29;98614.94;4980184;28;20527;-70
2021/05/31 05:37:42;;;;;;;5.30;4.90;;;;;;;8.50;77.18;98615.78;4977802;28;20209;-69
2021/05/31 05:40:43;;;;;;;5.40;5.00;;;;;;;8.67;76.98;98616.09;4977694;28;20470;-69
2021/05/31 05:43:28;;;;;;;5.80;5.30;;;;;;;8.89;75.89;98614.19;4977468;28;20203;-67
2021/05/31 05:46:01;;;;;;;6.43;5.83;;;;;;;8.94;75.42;98615.44;4977599;28;20213;-71
2021/05/31 05:48:29;;;;;;;6.57;5.57;;;;;;;9.06;74.52;98617.94;4978948;28;20607;-69
2021/05/31 05:51:05;;;;;;;6.37;5.83;;;;;;;9.30;73.12;98617.53;4982031;28;20610;-69
2021/05/31 05:53:33;;;;;;;6.03;5.43;;;;;;;9.32;73.40;98612.09;4980038;28;20248;-69
2021/05/31 05:56:03;;;;;;;8.00;5.87;;;;;;;9.51;72.71;98620.00;4981618;28;20211;-69
2021/05/31 05:58:32;;;;;;;5.97;5.57;;;;;;;9.43;73.04;98622.53;4980972;28;20610;-68
2021/05/31 06:01:00;;;;;;;5.43;5.13;;;;;;;9.70;71.90;98624.41;4978976;28;20217;-70
2021/05/31 06:03:28;;;;;;;7.10;5.20;;;;;;;9.78;71.74;98628.16;4980561;28;20776;-69
2021/05/31 06:05:56;;;;;;;5.60;5.20;;;;;;;9.82;71.46;98627.75;4981331;28;20217;-69
2021/05/31 06:08:24;;;;;;;7.63;5.40;;;;;;;10.17;68.96;98619.25;4979048;28;20205;-68
2021/05/31 06:10:51;;;;;;;7.87;5.37;;;;;;;10.25;68.34;98620.22;4978447;28;20213;-70
2021/05/31 06:13:19;;;;;;;5.60;5.10;;;;;;;10.16;69.77;98618.41;4982368;28;20240;-69
2021/05/31 06:15:48;;;;;;;7.70;5.20;;;;;;;10.30;69.59;98625.06;4982093;28;20201;-68
2021/05/31 06:18:15;;;;;;;5.23;4.87;;;;;;;10.55;68.89;98620.09;4979352;28;20221;-69
2021/05/31 06:20:43;;;;;;;5.50;5.00;;;;;;;10.64;68.51;98613.88;4981028;28;20412;-70
2021/05/31 06:23:11;;;;;;;5.30;4.80;;;;;;;10.82;68.20;98616.56;4980255;28;20202;-69
2021/05/31 06:25:39;;;;;;;5.40;4.90;;;;;;;11.03;66.19;98611.94;4980963;28;20879;-69
2021/05/31 06:28:07;;;;;;;6.00;4.50;;;;;;;10.99;67.13;98612.25;4980111;28;20209;-69
2021/05/31 06:30:35;;;;;;;5.67;4.90;;;;;;;11.17;65.72;98614.03;4981717;28;20217;-68
2021/05/31 06:33:04;;;;;;;5.43;5.03;;;;;;;11.37;65.55;98604.13;4984117;28;20230;-69
2021/05/31 06:35:32;;;;;;;5.67;5.17;;;;;;;11.48;64.96;98604.84;4983542;28;20236;-69
2021/05/31 06:37:59;;;;;;;5.00;4.60;;;;;;;11.47;64.76;98601.34;4983623;28;20209;-69
2021/05/31 06:40:27;;;;;;;5.13;4.73;;;;;;;11.84;62.61;98594.13;4982390;28;20209;-69
2021/05/31 06:42:56;;;;;;;6.03;4.33;;;;;;;12.19;60.04;98596.81;4985640;28;20209;-69
2021/05/31 06:45:26;;;;;;;4.30;4.00;;;;;;;12.30;60.15;98596.53;4982897;28;20206;-70
2021/05/31 06:47:55;;;;;;;4.43;4.13;;;;;;;12.30;59.44;98597.38;4983752;28;20217;-70
2021/05/31 06:50:25;;;;;;;4.47;4.20;;;;;;;12.38;60.05;98601.91;4982789;28;20210;-68
2021/05/31 06:52:53;;;;;;;8.20;4.50;;;;;;;12.57;59.45;98605.25;4983342;28;20398;-70
2021/05/31 06:55:23;;;;;;;4.13;3.83;;;;;;;12.65;57.21;98597.28;4984933;28;20214;-70
2021/05/31 06:57:51;;;;;;;4.63;4.00;;;;;;;12.81;57.57;98593.03;4983743;28;20209;-70
2021/05/31 07:00:21;;;;;;;3.83;3.63;;;;;;;12.93;55.95;98589.03;4977539;28;20205;-70
2021/05/31 07:02:49;;;;;;;4.83;4.10;;;;;;;13.22;54.44;98581.56;4982962;28;20213;-69
2021/05/31 07:05:17;;;;;;;4.20;3.90;;;;;;;13.32;54.04;98593.72;4980296;28;20582;-71
2021/05/31 07:07:45;;;;;;;4.00;3.80;;;;;;;13.43;53.02;98591.75;4983248;28;20606;-70
2021/05/31 07:10:15;;;;;;;4.00;3.67;;;;;;;13.42;52.91;98596.25;4982251;28;20312;-69
2021/05/31 07:12:42;;;;;;;4.37;4.10;;;;;;;13.34;52.18;98590.91;4980391;28;20248;-70
2021/05/31 07:15:13;;;;;;;4.30;4.00;;;;;;;13.43;52.68;98595.25;4983227;28;20547;-69
2021/05/31 07:17:41;;;;;;;4.17;3.87;;;;;;;13.52;52.12;98592.56;4983008;28;20217;-69
2021/05/31 07:20:10;;;;;;;4.27;3.87;;;;;;;13.58;52.91;98597.22;4982113;28;20206;-70
2021/05/31 07:22:38;;;;;;;5.33;4.20;;;;;;;13.58;52.49;98590.06;4981972;28;20209;-69
2021/05/31 07:25:09;;;;;;;4.43;4.13;;;;;;;13.64;52.18;98593.91;4982694;28;20225;-70
2021/05/31 07:27:36;;;;;;;4.47;4.07;;;;;;;13.80;52.62;98590.34;4983746;28;20669;-71
2021/05/31 07:30:05;;;;;;;4.90;4.60;;;;;;;13.88;51.83;98582.34;4983358;28;20217;-70
2021/05/31 07:32:32;;;;;;;3.93;3.63;;;;;;;13.92;50.79;98588.16;4984456;28;20241;-71
2021/05/31 07:35:00;;;;;;;3.17;3.07;;;;;;;14.17;50.42;98580.91;4983517;28;20226;-70
2021/05/31 07:37:27;;;;;;;3.63;3.43;;;;;;;14.06;50.00;98583.13;4982047;28;20213;-71
2021/05/31 07:39:55;;;;;;;3.53;3.33;;;;;;;14.04;49.16;98578.81;4984068;28;20302;-71
2021/05/31 07:42:24;;;;;;;3.67;3.43;;;;;;;13.90;50.21;98587.50;4984907;28;20202;-71
2021/05/31 07:44:51;;;;;;;3.57;3.37;;;;;;;14.18;50.19;98585.22;4981283;28;20809;-71
2021/05/31 07:47:19;;;;;;;3.37;3.17;;;;;;;14.10;49.57;98587.13;4982294;28;20260;-70
2021/05/31 07:49:46;;;;;;;3.37;3.17;;;;;;;14.32;49.23;98583.69;4982453;28;20232;-70
2021/05/31 07:52:19;;;;;;;4.30;4.00;;;;;;;14.41;49.50;98581.00;4980771;28;20209;-69
2021/05/31 07:54:47;;;;;;;4.00;3.70;;;;;;;14.66;48.12;98584.34;4984149;28;20240;-70
2021/05/31 07:57:15;;;;;;;3.60;3.40;;;;;;;14.64;47.32;98586.38;4976569;28;20206;-71
2021/05/31 07:59:46;;;;;;;3.43;3.13;;;;;;;14.74;47.41;98581.66;4984700;28;20205;-72
2021/05/31 08:02:13;;;;;;;3.53;3.33;;;;;;;14.90;47.22;98575.38;4983340;28;20225;-69
2021/05/31 08:04:42;;;;;;;4.23;3.40;;;;;;;15.09;46.75;98575.91;4984194;28;20434;-71
2021/05/31 08:07:10;;;;;;;3.40;3.10;;;;;;;15.03;45.57;98579.28;4983902;28;20206;-71
2021/05/31 08:09:38;;;;;;;3.30;3.10;;;;;;;14.98;46.34;98571.84;4982766;28;20217;-71
2021/05/31 08:12:06;;;;;;;3.60;3.37;;;;;;;14.98;46.59;98571.84;4982679;28;20209;-71
2021/05/31 08:14:33;;;;;;;3.53;3.27;;;;;;;15.28;45.24;98576.44;4981418;28;20760;-71
2021/05/31 08:17:03;;;;;;;3.53;3.33;;;;;;;15.11;45.54;98571.22;4983473;28;20614;-71
2021/05/31 08:19:32;;;;;;;6.77;3.70;;;;;;;14.74;46.29;98565.66;4982238;28;20694;-71
2021/05/31 08:22:01;;;;;;;3.50;3.30;;;;;;;14.88;44.73;98557.88;4981612;28;20507;-71
2021/05/31 08:24:29;;;;;;;3.47;3.27;;;;;;;14.80;46.94;98561.47;4980123;28;20385;-71
2021/05/31 08:26:56;;;;;;;4.10;3.70;;;;;;;14.98;46.25;98561.16;4980172;28;20209;-70
2021/05/31 08:29:24;;;;;;;3.07;2.87;;;;;;;15.24;45.84;98559.94;4981911;28;20210;-72
2021/05/31 08:31:52;;;;;;;3.10;2.90;;;;;;;15.47;43.26;98575.91;4980589;28;20559;-71
2021/05/31 08:34:23;;;;;;;2.87;2.77;;;;;;;15.26;42.85;98563.25;4981564;28;20280;-71
2021/05/31 08:36:50;;;;;;;2.93;2.77;;;;;;;15.43;43.16;98565.78;4980150;28;20214;-71
2021/05/31 08:39:17;;;;;;;2.80;2.60;;;;;;;15.92;41.22;98564.50;4979368;28;20232;-71
2021/05/31 08:41:45;;;;;;;3.37;2.70;;;;;;;15.93;40.17;98560.81;4981247;28;20213;-71
2021/05/31 08:44:13;;;;;;;2.63;2.53;;;;;;;16.15;39.41;98564.38;4981649;28;20225;-69
2021/05/31 08:46:40;;;;;;;2.80;2.60;;;;;;;16.22;40.13;98561.78;4979786;28;20231;-71
2021/05/31 08:49:08;;;;;;;3.33;3.13;;;;;;;16.32;39.61;98564.16;4982051;28;20213;-70
2021/05/31 08:51:38;;;;;;;3.10;2.90;;;;;;;16.32;38.74;98561.50;4980672;28;20610;-71
2021/05/31 08:54:07;;;;;;;2.67;2.47;;;;;;;16.08;39.90;98555.41;4980076;28;20242;-71
2021/05/31 08:56:34;;;;;;;3.00;2.80;;;;;;;16.19;39.67;98549.63;4980021;28;20210;-71
2021/05/31 08:59:04;;;;;;;2.70;2.60;;;;;;;16.31;39.49;98546.47;4981444;28;20201;-71
2021/05/31 09:01:31;;;;;;;3.00;2.40;;;;;;;16.58;37.91;98555.59;4981275;28;20213;-71
2021/05/31 09:03:59;;;;;;;2.80;2.60;;;;;;;16.53;36.90;98557.22;4979655;28;20228;-72
2021/05/31 09:06:27;;;;;;;2.77;2.60;;;;;;;16.41;38.31;98549.66;4981575;28;20221;-72
2021/05/31 09:08:57;;;;;;;2.90;2.70;;;;;;;16.57;38.00;98555.81;4981052;28;20213;-71
2021/05/31 09:11:27;;;;;;;2.43;2.23;;;;;;;16.64;38.00;98548.69;4980254;28;20210;-72
2021/05/31 09:13:55;;;;;;;2.43;2.33;;;;;;;16.76;35.98;98557.84;4983338;28;20234;-70
2021/05/31 09:16:24;;;;;;;2.30;2.17;;;;;;;16.64;35.23;98554.84;4981820;28;20205;-71
2021/05/31 09:18:54;;;;;;;2.80;2.27;;;;;;;16.72;36.83;98550.41;4981840;28;20205;-72
2021/05/31 09:21:23;;;;;;;2.33;2.13;;;;;;;16.84;36.02;98551.56;4982314;28;20694;-71
2021/05/31 09:23:54;;;;;;;2.47;2.37;;;;;;;16.82;37.19;98545.56;4983030;28;20245;-72
2021/05/31 09:26:23;;;;;;;2.83;2.73;;;;;;;16.74;37.31;98551.06;4981811;28;20206;-72
2021/05/31 09:28:57;;;;;;;2.57;2.37;;;;;;;16.98;36.86;98544.53;4978843;28;20220;-71
2021/05/31 09:31:26;;;;;;;2.70;2.50;;;;;;;17.17;37.45;98540.34;4979529;28;20230;-72
2021/05/31 09:34:01;;;;;;;2.00;1.90;;;;;;;17.34;35.46;98540.06;4979683;28;20261;-71
2021/05/31 09:36:33;;;;;;;3.00;2.60;;;;;;;17.01;36.37;98541.47;4981906;28;20202;-71
2021/05/31 09:39:05;;;;;;;2.47;2.37;;;;;;;17.09;35.67;98545.00;4982672;28;20575;-70
2021/05/31 09:41:35;;;;;;;3.23;2.37;;;;;;;17.17;36.32;98537.69;4982135;28;20259;-71
2021/05/31 09:44:05;;;;;;;2.57;2.47;;;;;;;17.27;35.88;98540.03;4983150;28;20253;-71
2021/05/31 09:46:37;;;;;;;2.60;2.40;;;;;;;17.42;36.51;98541.78;4981894;28;20224;-70
2021/05/31 09:49:13;;;;;;;2.40;2.30;;;;;;;17.18;36.61;98528.63;4978575;28;20300;-70
2021/05/31 09:51:51;;;;;;;2.10;2.00;;;;;;;17.41;36.47;98538.25;4981600;28;20209;-69
2021/05/31 09:54:33;;;;;;;2.27;2.17;;;;;;;17.67;36.06;98531.44;4982528;28;20229;-71
2021/05/31 09:57:15;;;;;;;2.60;2.50;;;;;;;17.56;33.79;98527.44;4977169;28;20214;-69
2021/05/31 09:59:44;;;;;;;2.40;2.30;;;;;;;17.44;35.19;98537.06;4978232;28;20228;-71
2021/05/31 10:02:16;;;;;;;2.60;2.50;;;;;;;17.78;35.36;98530.06;4978756;28;20218;-71
2021/05/31 10:04:55;;;;;;;2.60;2.40;;;;;;;17.90;35.57;98536.50;4974473;28;20250;-71
2021/05/31 10:07:33;;;;;;;2.40;2.20;;;;;;;17.87;35.67;98538.78;4981189;28;20212;-70
2021/05/31 10:10:01;;;;;;;2.30;2.20;;;;;;;17.65;35.77;98534.31;4983843;28;20205;-69
2021/05/31 10:12:50;;;;;;;2.50;2.40;;;;;;;17.69;36.47;98537.41;4982964;28;20261;-70
2021/05/31 10:15:19;;;;;;;2.63;2.43;;;;;;;17.17;35.41;98526.13;4983179;28;20226;-70
2021/05/31 10:17:47;;;;;;;3.00;2.77;;;;;;;17.39;36.21;98540.31;4982667;28;20466;-70
2021/05/31 10:20:15;;;;;;;2.40;2.30;;;;;;;17.56;36.05;98540.84;4982577;28;20205;-69
2021/05/31 10:22:42;;;;;;;3.07;2.87;;;;;;;17.48;34.90;98533.81;4985126;28;20965;-70
2021/05/31 10:25:12;;;;;;;2.73;2.53;;;;;;;17.50;35.77;98521.03;4984954;28;20229;-70
2021/05/31 10:27:41;;;;;;;2.80;2.60;;;;;;;17.73;35.66;98519.09;4984489;28;20217;-70
2021/05/31 10:30:14;;;;;;;2.30;2.20;;;;;;;17.89;35.64;98517.97;4984793;28;20210;-70
2021/05/31 10:32:42;;;;;;;3.63;3.00;;;;;;;18.14;34.08;98520.13;4984380;28;20216;-70
2021/05/31 10:35:21;;;;;;;2.30;2.20;;;;;;;18.16;35.99;98518.09;4985344;28;20236;-70
2021/05/31 10:37:53;;;;;;;2.40;2.30;;;;;;;18.52;34.37;98511.59;4985115;28;20227;-70
2021/05/31 10:40:21;;;;;;;2.50;2.40;;;;;;;19.02;33.84;98510.47;4983028;28;20209;-71
2021/05/31 10:42:51;;;;;;;2.63;2.53;;;;;;;19.21;33.90;98508.81;4983989;28;20500;-71
2021/05/31 10:45:27;;;;;;;2.90;2.70;;;;;;;19.32;33.91;98510.03;4984824;28;20662;-70
2021/05/31 10:48:05;;;;;;;2.43;2.30;;;;;;;19.92;31.33;98503.72;4981161;28;20205;-70
2021/05/31 10:50:34;;;;;;;3.83;2.57;;;;;;;20.57;30.40;98504.66;4983145;28;20211;-69
2021/05/31 10:53:02;;;;;;;2.80;2.60;;;;;;;20.72;29.84;98499.81;4983418;28;20626;-70
2021/05/31 10:55:30;;;;;;;2.73;2.63;;;;;;;19.92;30.93;98496.50;4982918;28;20259;-71
2021/05/31 10:57:59;;;;;;;2.60;2.40;;;;;;;20.71;30.26;98498.16;4983846;28;20217;-70
2021/05/31 11:00:29;;;;;;;2.53;2.43;;;;;;;21.39;29.21;98501.16;4983851;28;20279;-71
2021/05/31 11:03:08;;;;;;;2.50;2.40;;;;;;;21.47;29.35;98502.75;4985067;28;20208;-69
2021/05/31 11:05:36;;;;;;;3.03;2.77;;;;;;;21.15;29.70;98506.34;4982281;28;20202;-71
2021/05/31 11:08:07;;;;;;;2.37;2.27;;;;;;;21.13;29.69;98499.53;4983116;28;20222;-70
2021/05/31 11:10:36;;;;;;;2.30;2.20;;;;;;;21.73;28.63;98501.69;4983310;28;20212;-69
2021/05/31 11:13:11;;;;;;;2.37;2.17;;;;;;;21.81;28.61;98500.56;4984152;28;20729;-71
2021/05/31 11:15:40;;;;;;;2.13;2.03;;;;;;;21.48;29.46;98501.72;4985478;28;20837;-70
2021/05/31 11:18:08;;;;;;;2.30;2.20;;;;;;;21.67;27.20;98500.69;4984189;28;20223;-71
2021/05/31 11:20:40;;;;;;;2.87;2.40;;;;;;;21.90;26.96;98499.22;4980999;28;20216;-70
2021/05/31 11:23:07;;;;;;;2.00;1.90;;;;;;;21.83;28.04;98499.28;4983897;28;20236;-69
2021/05/31 11:25:35;;;;;;;2.90;2.70;;;;;;;21.76;28.42;98489.59;4982810;28;20696;-71
2021/05/31 11:28:04;;;;;;;3.27;2.80;;;;;;;20.93;30.47;98485.19;4977693;28;20545;-71
2021/05/31 11:30:33;;;;;;;2.10;2.00;;;;;;;20.25;30.42;98489.31;4982330;28;20233;-70
2021/05/31 11:33:04;;;;;;;2.63;2.43;;;;;;;19.65;31.33;98488.47;4979206;28;20210;-70
2021/05/31 11:35:32;;;;;;;2.60;2.40;;;;;;;19.47;32.17;98486.47;4983331;28;20206;-71
2021/05/31 11:38:09;;;;;;;2.50;2.40;;;;;;;19.70;30.74;98476.25;4983201;28;20716;-71
2021/05/31 11:40:40;;;;;;;2.50;2.40;;;;;;;20.00;29.97;98486.53;4982561;28;20214;-71
2021/05/31 11:43:10;;;;;;;2.60;2.40;;;;;;;19.38;31.52;98488.53;4983488;28;20586;-71
2021/05/31 11:45:38;;;;;;;2.23;2.13;;;;;;;19.36;32.21;98485.22;4984269;28;20206;-70
2021/05/31 11:48:09;;;;;;;2.20;2.10;;;;;;;19.13;31.92;98484.81;4981665;28;20217;-70
2021/05/31 11:50:40;;;;;;;2.70;2.60;;;;;;;18.56;31.48;98480.66;4982217;28;20206;-70
2021/05/31 11:53:09;;;;;;;2.27;2.17;;;;;;;18.84;33.39;98482.31;4980475;28;20249;-69